Terminal Aerodrome Forecast
Issued by NWS

Home | Current Version | Previous Version | Text Only | Print | Product List | Glossary On
Versions: 1 2 3 4 5 6 7 8 9 10 11 12 13 14 15
000
FTUS43 KABR 230500
TAFPIR
TAF
KPIR 230520Z 2306/2406 13024G34KT P6SM BKN100
     FM231800 16017KT P6SM SCT040 BKN150
     FM232100 29020G30KT P6SM SCT250
     FM240200 32011KT P6SM SKC=

USA.gov is the U.S. government's official web portal to all federal, state and local government web resources and services.